createdAt,value
2023-04-26T00:02:22.817Z,12.35
2023-04-26T00:04:49.314Z,12.38
2023-04-26T00:07:15.805Z,12.40
2023-04-26T00:09:42.271Z,12.42
2023-04-26T00:12:08.656Z,12.38
2023-04-26T00:14:35.076Z,12.35
2023-04-26T00:17:01.586Z,12.34
2023-04-26T00:19:28.123Z,12.29
2023-04-26T00:21:54.713Z,12.26
2023-04-26T00:24:21.087Z,12.26
2023-04-26T00:26:47.519Z,12.28
2023-04-26T00:29:13.976Z,12.27
2023-04-26T00:31:40.429Z,12.21
2023-04-26T00:34:06.852Z,12.21
2023-04-26T00:36:33.210Z,12.20
2023-04-26T00:38:59.636Z,12.21
2023-04-26T00:41:26.042Z,12.18
2023-04-26T00:43:52.533Z,12.18
2023-04-26T00:46:19.061Z,12.17
2023-04-26T00:48:45.445Z,12.12
2023-04-26T00:51:11.819Z,12.08
2023-04-26T00:53:45.534Z,12.11
2023-04-26T00:56:11.969Z,12.10
2023-04-26T00:58:38.417Z,12.06
2023-04-26T01:01:04.830Z,12.03
2023-04-26T01:03:31.441Z,12.03
2023-04-26T01:05:57.955Z,12.01
2023-04-26T01:08:24.435Z,11.95
2023-04-26T01:10:50.845Z,11.90
2023-04-26T01:13:17.290Z,11.87
2023-04-26T01:15:43.676Z,11.84
2023-04-26T01:18:10.083Z,11.83
2023-04-26T01:20:36.572Z,11.82
2023-04-26T01:23:02.957Z,11.78
2023-04-26T01:25:29.376Z,11.76
2023-04-26T01:27:55.817Z,11.73
2023-04-26T01:30:22.238Z,11.72
2023-04-26T01:32:48.654Z,11.71
2023-04-26T01:35:15.113Z,11.71
2023-04-26T01:37:41.490Z,11.68
2023-04-26T01:40:07.967Z,11.65
2023-04-26T01:42:34.345Z,11.64
2023-04-26T01:45:00.789Z,11.64
2023-04-26T01:47:27.186Z,11.61
2023-04-26T01:49:53.590Z,11.59
2023-04-26T01:52:19.983Z,11.58
2023-04-26T01:54:46.413Z,11.62
2023-04-26T01:57:12.846Z,11.62
2023-04-26T01:59:39.306Z,11.61
2023-04-26T02:02:05.894Z,11.56
2023-04-26T02:04:32.332Z,11.56
2023-04-26T02:06:58.707Z,11.56
2023-04-26T02:09:25.136Z,11.52
2023-04-26T02:11:51.490Z,11.47
2023-04-26T02:14:17.902Z,11.51
2023-04-26T02:16:44.325Z,11.51
2023-04-26T02:19:10.833Z,11.50
2023-04-26T02:21:37.284Z,11.49
2023-04-26T02:24:03.672Z,11.46
2023-04-26T02:26:30.107Z,11.42
2023-04-26T02:28:56.549Z,11.37
2023-04-26T02:31:23.307Z,11.33
2023-04-26T02:33:49.768Z,11.29
2023-04-26T02:36:16.231Z,11.27
2023-04-26T02:38:45.550Z,11.26
2023-04-26T02:41:12.006Z,11.28
2023-04-26T02:43:38.426Z,11.30
2023-04-26T02:46:04.831Z,11.36
2023-04-26T02:48:31.431Z,11.35
2023-04-26T02:50:57.811Z,11.35
2023-04-26T02:53:24.302Z,11.35
2023-04-26T02:55:50.692Z,11.35
2023-04-26T02:58:17.072Z,11.36
2023-04-26T03:00:43.489Z,11.35
2023-04-26T03:03:09.983Z,11.31
2023-04-26T03:05:36.427Z,11.29
2023-04-26T03:08:02.821Z,11.26
2023-04-26T03:10:29.205Z,11.27
2023-04-26T03:12:55.568Z,11.26
2023-04-26T03:15:21.962Z,11.25
2023-04-26T03:17:48.364Z,11.24
2023-04-26T03:20:14.817Z,11.25
2023-04-26T03:22:41.263Z,11.24
2023-04-26T03:25:07.726Z,11.17
2023-04-26T03:27:34.179Z,11.15
2023-04-26T03:30:00.607Z,11.14
2023-04-26T03:32:27.043Z,11.13
2023-04-26T03:34:53.491Z,11.12
2023-04-26T03:37:19.845Z,11.12
2023-04-26T03:39:48.481Z,11.12
2023-04-26T03:42:14.828Z,11.13
2023-04-26T03:44:41.269Z,11.11
2023-04-26T03:47:07.701Z,11.11
2023-04-26T03:49:35.464Z,11.10
2023-04-26T03:52:04.583Z,11.08
2023-04-26T03:54:31.056Z,11.04
2023-04-26T03:56:57.453Z,11.00
2023-04-26T03:59:23.872Z,10.99
2023-04-26T04:01:50.274Z,10.95
2023-04-26T04:04:16.926Z,10.92
2023-04-26T04:06:43.515Z,10.85
2023-04-26T04:09:09.899Z,10.88
2023-04-26T04:11:36.314Z,10.88
2023-04-26T04:14:02.683Z,10.86
2023-04-26T04:16:29.115Z,10.85
2023-04-26T04:18:55.614Z,10.83
2023-04-26T04:21:22.007Z,10.81
2023-04-26T04:23:48.490Z,10.82
2023-04-26T04:26:14.833Z,10.79
2023-04-26T04:28:41.649Z,10.79
2023-04-26T04:31:08.179Z,10.78
2023-04-26T04:33:34.563Z,10.77
2023-04-26T04:36:01.014Z,10.76
2023-04-26T04:38:27.429Z,10.76
2023-04-26T04:40:53.859Z,10.74
2023-04-26T04:43:20.323Z,10.71
2023-04-26T04:45:46.724Z,10.69
2023-04-26T04:48:13.188Z,10.72
2023-04-26T04:50:39.656Z,10.72
2023-04-26T04:53:06.056Z,10.68
2023-04-26T04:55:33.658Z,10.65
2023-04-26T04:58:00.165Z,10.57
2023-04-26T05:00:26.558Z,10.68
2023-04-26T05:02:53.108Z,10.76
2023-04-26T05:05:19.689Z,10.79
2023-04-26T05:07:46.171Z,10.80
2023-04-26T05:10:12.591Z,10.83
2023-04-26T05:12:39.078Z,10.79
2023-04-26T05:15:05.483Z,10.79
2023-04-26T05:17:31.877Z,10.82
2023-04-26T05:19:58.315Z,10.84
2023-04-26T05:22:24.660Z,10.85
2023-04-26T05:24:50.999Z,10.85
2023-04-26T05:27:18.210Z,10.83
2023-04-26T05:29:44.636Z,10.82
2023-04-26T05:32:11.106Z,10.81
2023-04-26T05:34:37.593Z,10.79
2023-04-26T05:37:03.970Z,10.78
2023-04-26T05:39:30.327Z,10.73
2023-04-26T05:41:56.684Z,10.74
2023-04-26T05:44:23.064Z,10.73
2023-04-26T05:46:49.420Z,10.73
2023-04-26T05:49:15.810Z,10.70
2023-04-26T05:51:42.238Z,10.68
2023-04-26T05:54:08.662Z,10.67
2023-04-26T05:56:35.016Z,10.67
2023-04-26T05:59:01.370Z,10.67
2023-04-26T06:01:27.746Z,10.69
2023-04-26T06:03:58.057Z,10.70
2023-04-26T06:06:25.686Z,10.68
2023-04-26T06:08:52.103Z,10.72
2023-04-26T06:11:18.516Z,10.75
2023-04-26T06:13:44.858Z,10.74
2023-04-26T06:16:11.291Z,10.76
2023-04-26T06:18:37.694Z,10.77
2023-04-26T06:21:04.084Z,10.77
2023-04-26T06:23:30.525Z,10.78
2023-04-26T06:25:56.991Z,10.78
2023-04-26T06:28:23.462Z,10.83
2023-04-26T06:30:49.837Z,10.82
2023-04-26T06:33:16.270Z,10.76
2023-04-26T06:35:42.657Z,10.78
2023-04-26T06:38:09.076Z,10.80
2023-04-26T06:40:35.474Z,10.82
2023-04-26T06:43:01.925Z,10.81
2023-04-26T06:45:28.317Z,10.83
2023-04-26T06:47:54.870Z,10.86
2023-04-26T06:50:21.323Z,10.68
2023-04-26T06:52:47.873Z,10.69
2023-04-26T06:55:14.427Z,10.73
2023-04-26T06:57:40.918Z,10.67
2023-04-26T07:00:07.544Z,10.94
2023-04-26T07:02:34.170Z,11.03
2023-04-26T07:05:00.835Z,11.17
2023-04-26T07:07:27.311Z,11.27
2023-04-26T07:09:53.695Z,11.34
2023-04-26T07:12:20.051Z,11.29
2023-04-26T07:14:46.418Z,11.28
2023-04-26T07:17:12.828Z,11.33
2023-04-26T07:19:39.268Z,11.32
2023-04-26T07:22:05.652Z,11.32
2023-04-26T07:24:31.993Z,11.30
2023-04-26T07:26:58.380Z,11.27
2023-04-26T07:29:24.816Z,11.21
2023-04-26T07:31:51.221Z,11.17
2023-04-26T07:34:17.579Z,11.13
2023-04-26T07:36:43.970Z,11.09
2023-04-26T07:39:10.350Z,11.05
2023-04-26T07:41:36.720Z,10.97
2023-04-26T07:44:03.107Z,10.92
2023-04-26T07:46:29.495Z,10.82
2023-04-26T07:48:56.038Z,10.84
2023-04-26T07:51:22.382Z,10.83
2023-04-26T07:53:49.112Z,10.85
2023-04-26T07:56:15.495Z,10.90
2023-04-26T07:58:42.018Z,10.96
2023-04-26T08:01:08.397Z,10.99
2023-04-26T08:03:35.070Z,11.00
2023-04-26T08:06:01.961Z,11.02
2023-04-26T08:08:28.555Z,11.01
2023-04-26T08:10:55.015Z,11.06
2023-04-26T08:13:21.528Z,11.11
2023-04-26T08:15:48.023Z,11.13
2023-04-26T08:18:16.488Z,11.17
2023-04-26T08:20:42.955Z,11.03
2023-04-26T08:23:09.358Z,11.08
2023-04-26T08:25:35.847Z,11.10
2023-04-26T08:28:02.260Z,11.29
2023-04-26T08:30:28.677Z,11.32
2023-04-26T08:32:55.047Z,11.33
2023-04-26T08:35:21.465Z,11.32
2023-04-26T08:37:47.948Z,11.29
2023-04-26T08:40:14.436Z,11.27
2023-04-26T08:42:40.828Z,11.35
2023-04-26T08:45:07.224Z,11.13
2023-04-26T08:47:33.648Z,11.03
2023-04-26T08:50:00.163Z,11.06
2023-04-26T08:52:26.575Z,11.06
2023-04-26T08:54:52.987Z,11.15
2023-04-26T08:57:19.398Z,11.14
2023-04-26T08:59:45.755Z,11.14
2023-04-26T09:02:12.452Z,11.18
2023-04-26T09:04:39.436Z,11.20
2023-04-26T09:07:05.958Z,11.17
2023-04-26T09:09:32.335Z,11.11
2023-04-26T09:11:58.719Z,11.28
2023-04-26T09:14:25.139Z,11.37
2023-04-26T09:16:51.560Z,11.42
2023-04-26T09:19:17.947Z,11.41
2023-04-26T09:21:44.278Z,11.50
2023-04-26T09:24:10.689Z,11.49
2023-04-26T09:26:37.060Z,11.50
2023-04-26T09:29:03.497Z,11.53
2023-04-26T09:31:29.901Z,11.59
2023-04-26T09:33:56.321Z,11.57
2023-04-26T09:36:22.862Z,11.67
2023-04-26T09:38:49.496Z,11.69
2023-04-26T09:41:16.095Z,11.73
2023-04-26T09:43:42.481Z,11.78
2023-04-26T09:46:08.845Z,11.74
2023-04-26T09:48:37.434Z,11.75
2023-04-26T09:51:03.818Z,11.78
2023-04-26T09:53:30.255Z,11.69
2023-04-26T09:55:56.674Z,11.72
2023-04-26T09:58:23.178Z,11.73
2023-04-26T10:00:49.656Z,11.70
2023-04-26T10:03:16.254Z,11.69
2023-04-26T10:05:42.805Z,11.79
2023-04-26T10:08:09.352Z,11.86
2023-04-26T10:10:35.678Z,11.89
2023-04-26T10:13:02.059Z,11.76
2023-04-26T10:15:28.816Z,11.83
2023-04-26T10:17:55.210Z,11.99
2023-04-26T10:20:21.634Z,11.97
2023-04-26T10:22:48.070Z,11.86
2023-04-26T10:25:14.561Z,11.98
2023-04-26T10:27:40.937Z,12.09
2023-04-26T10:30:07.367Z,12.11
2023-04-26T10:32:33.772Z,12.13
2023-04-26T10:35:00.177Z,12.22
2023-04-26T10:37:26.589Z,12.28
2023-04-26T10:39:52.927Z,12.28
2023-04-26T10:42:19.287Z,12.33
2023-04-26T10:44:45.727Z,12.30
2023-04-26T10:47:12.213Z,12.39
2023-04-26T10:49:38.574Z,12.46
2023-04-26T10:52:04.981Z,12.48
2023-04-26T10:54:31.377Z,12.56
2023-04-26T10:56:57.824Z,12.65
2023-04-26T10:59:39.847Z,12.71
2023-04-26T11:02:10.157Z,12.82
2023-04-26T11:04:36.683Z,12.88
2023-04-26T11:07:03.214Z,12.97
2023-04-26T11:09:29.614Z,12.99
2023-04-26T11:11:55.996Z,13.06
2023-04-26T11:14:22.389Z,13.07
2023-04-26T11:16:48.780Z,13.06
2023-04-26T11:19:15.143Z,13.13
2023-04-26T11:21:41.516Z,13.13
2023-04-26T11:24:07.901Z,13.18
2023-04-26T11:26:34.339Z,13.17
2023-04-26T11:29:00.727Z,13.17
2023-04-26T11:31:27.134Z,13.22
2023-04-26T11:33:53.571Z,13.33
2023-04-26T11:36:19.996Z,13.30
2023-04-26T11:38:46.399Z,13.47
2023-04-26T11:41:12.789Z,13.49
2023-04-26T11:43:39.277Z,13.59
2023-04-26T11:46:05.780Z,13.65
2023-04-26T11:48:33.563Z,13.68
2023-04-26T11:50:59.999Z,13.78
2023-04-26T11:53:29.101Z,13.82
2023-04-26T11:55:55.524Z,13.90
2023-04-26T11:58:21.965Z,14.01
2023-04-26T12:00:48.338Z,14.04
2023-04-26T12:03:14.924Z,14.06
2023-04-26T12:05:41.561Z,14.15
2023-04-26T12:08:07.957Z,14.20
2023-04-26T12:10:34.321Z,14.17
2023-04-26T12:13:00.701Z,14.17
2023-04-26T12:15:27.063Z,14.15
2023-04-26T12:17:53.516Z,14.12
2023-04-26T12:20:19.895Z,14.15
2023-04-26T12:22:46.298Z,14.15
2023-04-26T12:25:12.677Z,14.14
2023-04-26T12:27:39.064Z,14.23
2023-04-26T12:30:08.479Z,14.37
2023-04-26T12:32:34.904Z,14.43
2023-04-26T12:35:03.806Z,14.48
2023-04-26T12:37:30.252Z,14.56
2023-04-26T12:39:56.666Z,14.62
2023-04-26T12:42:23.102Z,14.65
2023-04-26T12:44:49.517Z,14.77
2023-04-26T12:47:15.872Z,14.81
2023-04-26T12:49:42.407Z,14.87
2023-04-26T12:52:08.788Z,14.91
2023-04-26T12:54:35.151Z,14.99
2023-04-26T12:57:01.566Z,15.07
2023-04-26T12:59:28.015Z,15.20
2023-04-26T13:01:54.520Z,15.23
2023-04-26T13:04:21.181Z,15.36
2023-04-26T13:06:47.746Z,15.48
2023-04-26T13:09:14.150Z,15.51
2023-04-26T13:11:40.575Z,15.71
2023-04-26T13:14:06.949Z,15.82
2023-04-26T13:16:33.405Z,15.90
2023-04-26T13:19:00.024Z,15.97
2023-04-26T13:21:26.413Z,16.02
2023-04-26T13:23:52.781Z,16.06
2023-04-26T13:26:19.116Z,16.07
2023-04-26T13:28:45.539Z,16.08
2023-04-26T13:31:12.021Z,16.02
2023-04-26T13:33:38.644Z,15.96
2023-04-26T13:36:05.123Z,15.81
2023-04-26T13:38:32.814Z,15.79
2023-04-26T13:40:59.455Z,15.88
2023-04-26T13:43:25.874Z,15.94
2023-04-26T13:45:52.361Z,15.99
2023-04-26T13:48:18.889Z,16.01
2023-04-26T13:50:45.341Z,16.06
2023-04-26T13:53:11.725Z,16.13
2023-04-26T13:55:38.184Z,16.17
2023-04-26T13:58:04.576Z,16.26
2023-04-26T14:00:30.941Z,16.36
2023-04-26T14:02:57.464Z,16.45
2023-04-26T14:05:24.067Z,16.57
2023-04-26T14:07:51.131Z,16.70
2023-04-26T14:10:18.805Z,16.80
2023-04-26T14:12:45.168Z,16.65
2023-04-26T14:15:11.559Z,16.67
2023-04-26T14:17:38.050Z,16.54
2023-04-26T14:20:04.517Z,16.42
2023-04-26T14:22:30.839Z,16.33
2023-04-26T14:24:58.818Z,16.33
2023-04-26T14:27:25.199Z,16.30
2023-04-26T14:29:51.570Z,16.20
2023-04-26T14:32:17.914Z,16.20
2023-04-26T14:34:44.314Z,16.21
2023-04-26T14:37:10.684Z,16.12
2023-04-26T14:39:37.033Z,16.16
2023-04-26T14:42:03.387Z,16.19
2023-04-26T14:44:29.882Z,16.20
2023-04-26T14:46:56.274Z,16.24
2023-04-26T14:49:22.945Z,16.27
2023-04-26T14:51:51.233Z,16.23
2023-04-26T14:54:19.077Z,16.21
2023-04-26T14:56:45.504Z,16.25
2023-04-26T14:59:12.107Z,16.30
2023-04-26T15:01:38.557Z,16.17
2023-04-26T15:04:05.291Z,16.23
2023-04-26T15:06:31.794Z,16.22
2023-04-26T15:08:58.357Z,16.12
2023-04-26T15:11:24.836Z,16.13
2023-04-26T15:13:51.216Z,16.13
2023-04-26T15:16:17.756Z,16.16
2023-04-26T15:18:44.165Z,16.12
2023-04-26T15:21:10.573Z,16.16
2023-04-26T15:23:36.931Z,16.18
2023-04-26T15:26:03.332Z,16.22
2023-04-26T15:28:29.661Z,16.22
2023-04-26T15:30:56.025Z,16.23
2023-04-26T15:33:22.554Z,16.17
2023-04-26T15:35:48.926Z,16.07
2023-04-26T15:38:15.329Z,16.10
2023-04-26T15:40:41.665Z,15.96
2023-04-26T15:43:08.010Z,16.02
2023-04-26T15:45:34.451Z,16.09
2023-04-26T15:48:00.896Z,16.12
2023-04-26T15:50:27.287Z,16.17
2023-04-26T15:52:53.684Z,16.25
2023-04-26T15:55:20.174Z,16.31
2023-04-26T15:57:47.605Z,16.36
2023-04-26T16:00:13.984Z,16.38
2023-04-26T16:02:40.559Z,16.42
2023-04-26T16:05:07.223Z,16.45
2023-04-26T16:07:34.594Z,16.46
2023-04-26T16:10:00.965Z,16.44
2023-04-26T16:12:27.357Z,16.41
2023-04-26T16:14:53.815Z,16.36
2023-04-26T16:17:20.237Z,16.27
2023-04-26T16:19:46.585Z,16.31
2023-04-26T16:22:12.975Z,16.20
2023-04-26T16:24:39.376Z,16.27
2023-04-26T16:27:05.787Z,16.30
2023-04-26T16:29:32.456Z,16.32
2023-04-26T16:31:58.990Z,16.36
2023-04-26T16:34:25.406Z,16.39
2023-04-26T16:36:51.754Z,16.43
2023-04-26T16:39:18.155Z,16.44
2023-04-26T16:41:44.585Z,16.45
2023-04-26T16:44:11.005Z,16.46
2023-04-26T16:46:37.569Z,16.45
2023-04-26T16:49:04.094Z,16.43
2023-04-26T16:51:30.477Z,16.42
2023-04-26T16:56:47.651Z,16.49
2023-04-26T16:59:14.087Z,16.54
2023-04-26T17:01:40.482Z,16.56
2023-04-26T17:04:06.969Z,16.57
2023-04-26T17:06:34.278Z,16.55
2023-04-26T17:09:00.696Z,16.58
2023-04-26T17:11:27.179Z,16.62
2023-04-26T17:13:53.630Z,16.63
2023-04-26T17:16:20.125Z,16.64
2023-04-26T17:18:46.772Z,16.66
2023-04-26T17:21:13.941Z,16.69
2023-04-26T17:23:40.396Z,16.73
2023-04-26T17:26:09.806Z,16.73
2023-04-26T17:28:36.248Z,16.74
2023-04-26T17:31:02.628Z,16.73
2023-04-26T17:33:28.978Z,16.75
2023-04-26T17:35:55.439Z,16.74
2023-04-26T17:41:12.608Z,16.78
2023-04-26T17:43:39.045Z,16.73
2023-04-26T17:46:05.534Z,16.75
2023-04-26T17:48:32.130Z,16.54
2023-04-26T17:50:58.572Z,16.49
2023-04-26T17:53:24.980Z,16.63
2023-04-26T17:55:53.532Z,16.66
2023-04-26T17:58:19.979Z,16.72
2023-04-26T18:00:46.367Z,16.72
2023-04-26T18:03:16.162Z,16.67
2023-04-26T18:05:43.481Z,16.64
2023-04-26T18:08:09.915Z,16.66
2023-04-26T18:10:36.367Z,16.66
2023-04-26T18:15:52.056Z,16.62
2023-04-26T18:18:18.665Z,16.59
2023-04-26T18:20:45.100Z,16.63
2023-04-26T18:23:11.557Z,16.60
2023-04-26T18:25:38.106Z,16.58
2023-04-26T18:28:06.359Z,16.69
2023-04-26T18:30:32.875Z,16.63
2023-04-26T18:32:59.396Z,16.59
2023-04-26T18:35:25.874Z,16.56
2023-04-26T18:37:58.491Z,16.56
2023-04-26T18:40:24.848Z,16.64
2023-04-26T18:42:51.215Z,16.58
2023-04-26T18:45:17.591Z,16.56
2023-04-26T18:47:44.601Z,16.51
2023-04-26T18:50:11.085Z,16.49
2023-04-26T18:52:38.506Z,16.55
2023-04-26T18:55:05.047Z,16.57
2023-04-26T18:57:31.443Z,16.65
2023-04-26T18:59:58.042Z,16.66
2023-04-26T19:02:24.530Z,16.65
2023-04-26T19:04:51.210Z,16.62
2023-04-26T19:07:17.805Z,16.58
2023-04-26T19:09:53.664Z,16.57
2023-04-26T19:12:21.366Z,16.61
2023-04-26T19:14:47.859Z,16.61
2023-04-26T19:17:14.304Z,16.55
2023-04-26T19:19:40.768Z,16.50
2023-04-26T19:22:07.262Z,16.40
2023-04-26T19:24:33.715Z,16.49
2023-04-26T19:27:00.187Z,16.43
2023-04-26T19:29:26.636Z,16.46
2023-04-26T19:31:53.074Z,16.49
2023-04-26T19:34:19.661Z,16.48
2023-04-26T19:36:46.101Z,16.52
2023-04-26T19:39:17.153Z,16.54
2023-04-26T19:41:51.095Z,16.54
2023-04-26T19:44:25.087Z,16.47
2023-04-26T19:46:51.684Z,16.46
2023-04-26T19:49:18.157Z,16.51
2023-04-26T19:51:44.556Z,16.43
2023-04-26T19:54:10.964Z,16.44
2023-04-26T19:56:37.389Z,16.40
2023-04-26T19:59:03.922Z,16.46
2023-04-26T20:01:30.519Z,16.42
2023-04-26T20:03:57.067Z,16.45
2023-04-26T20:06:23.559Z,16.40
2023-04-26T20:08:49.982Z,16.43
2023-04-26T20:11:19.443Z,16.36
2023-04-26T20:13:48.259Z,16.36
2023-04-26T20:16:16.494Z,16.23
2023-04-26T20:18:42.980Z,16.27
2023-04-26T20:21:09.504Z,16.33
2023-04-26T20:23:35.968Z,16.32
2023-04-26T20:26:02.388Z,16.28
2023-04-26T20:28:28.799Z,16.26
2023-04-26T20:30:55.252Z,16.27
2023-04-26T20:33:21.634Z,16.28
2023-04-26T20:35:48.120Z,16.26
2023-04-26T20:38:14.667Z,16.06
2023-04-26T20:40:41.692Z,16.11
2023-04-26T20:45:59.357Z,16.25
2023-04-26T20:48:25.795Z,16.26
2023-04-26T20:50:52.337Z,16.19
2023-04-26T20:53:24.685Z,16.15
2023-04-26T20:55:51.190Z,16.09
2023-04-26T20:58:18.642Z,16.14
2023-04-26T21:00:45.108Z,16.17
2023-04-26T21:03:11.635Z,16.18
2023-04-26T21:05:38.182Z,16.14
2023-04-26T21:08:04.712Z,16.16
2023-04-26T21:10:31.237Z,16.17
2023-04-26T21:12:57.708Z,16.15
2023-04-26T21:15:24.141Z,16.12
2023-04-26T21:17:51.704Z,16.12
2023-04-26T21:20:18.149Z,16.07
2023-04-26T21:22:52.035Z,16.07
2023-04-26T21:28:14.165Z,16.09
2023-04-26T21:30:42.834Z,16.04
2023-04-26T21:33:12.227Z,16.15
2023-04-26T21:35:38.670Z,16.10
2023-04-26T21:38:05.059Z,16.11
2023-04-26T21:40:31.602Z,16.07
2023-04-26T21:45:30.291Z,16.07
2023-04-26T21:47:56.799Z,16.04
2023-04-26T21:50:23.364Z,16.03
2023-04-26T21:52:49.885Z,15.98
2023-04-26T21:55:16.404Z,15.99
2023-04-26T21:57:42.908Z,16.02
2023-04-26T22:00:09.340Z,16.05
2023-04-26T22:02:36.046Z,16.10
2023-04-26T22:05:02.678Z,16.12
2023-04-26T22:07:29.192Z,15.93
2023-04-26T22:09:55.736Z,15.95
2023-04-26T22:12:22.242Z,16.01
2023-04-26T22:14:48.649Z,16.05
2023-04-26T22:17:15.145Z,16.06
2023-04-26T22:19:41.675Z,15.98
2023-04-26T22:22:08.247Z,15.99
2023-04-26T22:24:34.768Z,15.97
2023-04-26T22:27:01.297Z,16.03
2023-04-26T22:29:27.805Z,16.03
2023-04-26T22:31:54.463Z,16.02
2023-04-26T22:34:20.933Z,16.02
2023-04-26T22:39:33.512Z,16.01
2023-04-26T22:41:59.909Z,16.06
2023-04-26T22:44:26.531Z,16.04
2023-04-26T22:46:53.020Z,16.02
2023-04-26T22:49:19.522Z,16.01
2023-04-26T22:51:57.416Z,15.98
2023-04-26T22:54:32.026Z,15.99
2023-04-26T22:59:57.403Z,15.95
2023-04-26T23:02:24.103Z,15.93
2023-04-26T23:04:50.773Z,15.89
2023-04-26T23:07:17.228Z,15.91
2023-04-26T23:09:43.863Z,15.87
2023-04-26T23:12:10.379Z,15.85
2023-04-26T23:14:36.829Z,15.83
2023-04-26T23:17:04.894Z,15.82
2023-04-26T23:19:31.382Z,15.80
2023-04-26T23:21:57.846Z,15.80
2023-04-26T23:24:24.314Z,15.85
2023-04-26T23:26:50.801Z,15.85
2023-04-26T23:29:17.236Z,15.87
2023-04-26T23:31:43.770Z,15.84
2023-04-26T23:34:10.251Z,15.85
2023-04-26T23:36:36.746Z,15.88
2023-04-26T23:39:03.328Z,15.86
2023-04-26T23:41:29.803Z,15.84
2023-04-26T23:43:56.282Z,15.80
2023-04-26T23:46:22.881Z,15.77
2023-04-26T23:48:49.383Z,15.77
2023-04-26T23:51:18.032Z,15.74
2023-04-26T23:53:44.857Z,15.69
2023-04-26T23:56:11.398Z,15.50
2023-04-26T23:58:37.914Z,15.56
